Sulphur Springs, Texas
Current Conditions -  °F | °C
As of 11:15 AM on Thursday 18 Dec 2014 (Local Time) from KSLR Reporting Station
Haze Haze  
Wind Chill: 41°   Ceiling: 300
Heat Index: 44°   Visibility: 2.5mi
Dew Point: 43°   Wind: 5mph
Humidity: 99%   Direction: 50°NE
Pressure: 30.21"   Gusts: NA
Location:  33.14°N, 95.6°W
Report Text: KSLR 181715Z AUTO 05004KT 2 1/2SM BR OVC003 07/06 A3021 RMK AO2 T00650063
Loading
Personal Weather Stations






























Interactive Weather Map New forecast layout! Learn more

10-Day Weather Forecast

Advertisements
Track Severe Weather on mobile